createdAt,value
2023-03-03T00:00:19.242Z,59.85
2023-03-03T00:01:52.286Z,59.08
2023-03-03T00:03:25.980Z,55.35
2023-03-03T00:04:59.121Z,58.53
2023-03-03T00:06:32.286Z,55.75
2023-03-03T00:08:05.173Z,53.38
2023-03-03T00:09:38.252Z,56.15
2023-03-03T00:11:12.085Z,55.03
2023-03-03T00:12:48.577Z,55.33
2023-03-03T00:14:25.109Z,57.28
2023-03-03T00:16:15.123Z,56.15
2023-03-03T00:17:48.788Z,57.70
2023-03-03T00:19:23.185Z,60.15
2023-03-03T00:20:57.944Z,55.42
2023-03-03T00:22:32.978Z,56.40
2023-03-03T00:24:36.482Z,53.22
2023-03-03T00:26:20.728Z,53.45
2023-03-03T00:27:54.061Z,51.58
2023-03-03T00:29:35.696Z,55.40
2023-03-03T00:31:18.188Z,51.65
2023-03-03T00:32:52.914Z,55.00
2023-03-03T00:34:27.851Z,49.58
2023-03-03T00:36:21.975Z,49.70
2023-03-03T00:37:56.674Z,55.60
2023-03-03T00:39:32.986Z,53.03
2023-03-03T00:41:17.429Z,53.78
2023-03-03T00:42:53.257Z,50.80
2023-03-03T00:44:41.337Z,51.35
2023-03-03T00:46:18.910Z,56.22
2023-03-03T00:47:52.215Z,54.95
2023-03-03T00:49:28.111Z,57.83
2023-03-03T00:51:02.801Z,56.88
2023-03-03T00:52:36.893Z,56.35
2023-03-03T00:54:10.020Z,56.83
2023-03-03T00:55:42.128Z,60.05
2023-03-03T00:57:15.448Z,50.63
2023-03-03T00:58:49.698Z,58.05
2023-03-03T01:00:24.016Z,53.40
2023-03-03T01:01:58.604Z,51.03
2023-03-03T01:03:32.056Z,51.72
2023-03-03T01:05:04.730Z,53.75
2023-03-03T01:06:37.820Z,52.47
2023-03-03T01:08:10.866Z,51.65
2023-03-03T01:09:44.093Z,51.72
2023-03-03T01:11:22.679Z,53.25
2023-03-03T01:12:57.678Z,52.58
2023-03-03T01:14:31.059Z,51.83
2023-03-03T01:16:05.083Z,58.45
2023-03-03T01:17:40.611Z,70.68
2023-03-03T01:19:13.771Z,73.63
2023-03-03T01:20:47.186Z,73.95
2023-03-03T01:22:19.429Z,80.68
2023-03-03T01:23:52.606Z,105.13
2023-03-03T01:25:25.834Z,106.20
2023-03-03T01:26:57.874Z,108.07
2023-03-03T01:28:30.980Z,159.82
2023-03-03T01:30:04.858Z,159.63
2023-03-03T01:31:38.153Z,165.30
2023-03-03T01:33:11.678Z,183.45
2023-03-03T01:34:44.963Z,189.90
2023-03-03T01:36:23.600Z,182.38
2023-03-03T01:37:56.682Z,217.95
2023-03-03T01:39:30.114Z,214.00
2023-03-03T01:41:04.092Z,213.38
2023-03-03T01:42:36.223Z,189.88
2023-03-03T01:44:15.257Z,185.85
2023-03-03T01:46:21.760Z,176.60
2023-03-03T01:48:00.005Z,171.73
2023-03-03T01:49:37.720Z,175.00
2023-03-03T01:51:16.902Z,159.93
2023-03-03T01:52:49.989Z,151.40
2023-03-03T01:54:28.639Z,165.10
2023-03-03T01:56:02.884Z,151.88
2023-03-03T01:57:41.075Z,148.05
2023-03-03T01:59:17.594Z,151.32
2023-03-03T02:00:53.085Z,160.70
2023-03-03T02:02:28.755Z,163.98
2023-03-03T02:04:02.065Z,190.13
2023-03-03T02:05:37.306Z,157.10
2023-03-03T02:07:11.642Z,160.50
2023-03-03T02:08:53.448Z,186.85
2023-03-03T02:10:27.525Z,170.32
2023-03-03T02:12:04.586Z,161.23
2023-03-03T02:13:37.752Z,173.18
2023-03-03T02:15:18.491Z,201.43
2023-03-03T02:16:51.856Z,214.27
2023-03-03T02:18:25.205Z,335.85
2023-03-03T02:20:05.660Z,257.50
2023-03-03T02:21:40.704Z,269.20
2023-03-03T02:23:23.259Z,188.73
2023-03-03T02:25:00.936Z,208.77
2023-03-03T02:26:40.312Z,221.43
2023-03-03T02:28:13.927Z,208.50
2023-03-03T02:29:47.187Z,189.80
2023-03-03T02:31:22.424Z,184.18
2023-03-03T02:32:55.563Z,167.77
2023-03-03T02:34:28.876Z,153.02
2023-03-03T02:36:01.946Z,145.18
2023-03-03T02:37:35.126Z,146.18
2023-03-03T02:39:11.886Z,128.38
2023-03-03T02:40:50.698Z,123.28
2023-03-03T02:42:30.645Z,129.95
2023-03-03T02:44:07.238Z,123.68
2023-03-03T02:45:45.169Z,133.95
2023-03-03T02:47:18.385Z,122.97
2023-03-03T02:48:50.624Z,126.35
2023-03-03T02:50:24.160Z,123.20
2023-03-03T02:51:58.384Z,129.63
2023-03-03T02:53:31.680Z,131.50
2023-03-03T02:55:05.119Z,122.13
2023-03-03T02:56:38.694Z,125.35
2023-03-03T02:58:13.130Z,114.72
2023-03-03T02:59:46.205Z,122.05
2023-03-03T03:01:22.245Z,124.05
2023-03-03T03:02:56.941Z,139.25
2023-03-03T03:04:30.180Z,137.45
2023-03-03T03:06:03.593Z,128.23
2023-03-03T03:07:36.796Z,133.15
2023-03-03T03:09:10.664Z,128.27
2023-03-03T03:10:43.748Z,129.57
2023-03-03T03:12:19.297Z,139.57
2023-03-03T03:13:55.723Z,125.63
2023-03-03T03:15:29.271Z,136.02
2023-03-03T03:17:02.763Z,144.35
2023-03-03T03:18:35.924Z,141.38
2023-03-03T03:20:09.742Z,181.45
2023-03-03T03:21:42.814Z,174.02
2023-03-03T03:23:18.459Z,177.93
2023-03-03T03:24:51.534Z,248.32
2023-03-03T03:26:25.218Z,230.82
2023-03-03T03:27:59.011Z,214.98
2023-03-03T03:29:32.653Z,219.48
2023-03-03T03:31:07.273Z,216.15
2023-03-03T03:32:41.126Z,267.15
2023-03-03T03:34:15.176Z,245.63
2023-03-03T03:35:48.296Z,286.33
2023-03-03T03:37:22.970Z,252.70
2023-03-03T03:38:56.066Z,266.48
2023-03-03T03:40:29.135Z,236.88
2023-03-03T03:42:02.456Z,230.95
2023-03-03T03:43:35.985Z,250.85
2023-03-03T03:45:15.286Z,239.50
2023-03-03T03:46:50.698Z,256.30
2023-03-03T03:48:23.953Z,258.85
2023-03-03T03:49:57.902Z,266.60
2023-03-03T03:51:31.540Z,285.38
2023-03-03T03:53:05.124Z,229.65
2023-03-03T03:54:38.357Z,240.77
2023-03-03T03:56:11.688Z,227.60
2023-03-03T03:57:44.808Z,226.60
2023-03-03T03:59:18.124Z,244.50
2023-03-03T04:00:52.558Z,240.05
2023-03-03T04:02:25.816Z,205.02
2023-03-03T04:03:59.181Z,255.30
2023-03-03T04:05:32.317Z,222.32
2023-03-03T04:07:05.390Z,220.23
2023-03-03T04:08:38.835Z,244.50
2023-03-03T04:10:12.688Z,246.23
2023-03-03T04:11:45.915Z,202.32
2023-03-03T04:13:19.729Z,227.85
2023-03-03T04:14:53.075Z,209.63
2023-03-03T04:16:28.028Z,213.70
2023-03-03T04:18:01.280Z,185.60
2023-03-03T04:19:34.768Z,166.60
2023-03-03T04:21:07.897Z,156.25
2023-03-03T04:22:41.055Z,149.05
2023-03-03T04:24:13.113Z,127.80
2023-03-03T04:25:47.977Z,152.30
2023-03-03T04:27:21.662Z,151.55
2023-03-03T04:28:54.855Z,141.73
2023-03-03T04:30:29.079Z,156.07
2023-03-03T04:32:05.140Z,151.63
2023-03-03T04:33:39.508Z,161.43
2023-03-03T04:35:12.190Z,147.43
2023-03-03T04:36:47.647Z,157.30
2023-03-03T04:38:21.377Z,183.68
2023-03-03T04:39:55.710Z,172.35
2023-03-03T04:41:29.145Z,173.98
2023-03-03T04:43:02.587Z,182.13
2023-03-03T04:44:35.214Z,167.10
2023-03-03T04:46:08.735Z,184.70
2023-03-03T04:47:44.464Z,184.95
2023-03-03T04:49:17.633Z,195.02
2023-03-03T04:50:51.473Z,186.68
2023-03-03T04:52:24.882Z,195.25
2023-03-03T04:53:58.013Z,188.30
2023-03-03T04:55:31.409Z,190.98
2023-03-03T04:57:04.600Z,200.52
2023-03-03T04:58:38.742Z,216.07
2023-03-03T05:00:14.534Z,226.45
2023-03-03T05:01:47.705Z,229.23
2023-03-03T05:03:22.827Z,202.57
2023-03-03T05:04:56.340Z,214.02
2023-03-03T05:06:29.386Z,209.00
2023-03-03T05:08:01.490Z,216.30
2023-03-03T05:09:35.163Z,249.73
2023-03-03T05:11:08.271Z,178.98
2023-03-03T05:12:42.161Z,164.43
2023-03-03T05:14:15.303Z,199.25
2023-03-03T05:15:52.177Z,177.98
2023-03-03T05:17:25.320Z,182.40
2023-03-03T05:18:59.788Z,213.57
2023-03-03T05:20:31.845Z,169.98
2023-03-03T05:22:05.005Z,159.82
2023-03-03T05:23:38.049Z,173.68
2023-03-03T05:25:12.670Z,153.90
2023-03-03T05:26:45.738Z,148.35
2023-03-03T05:28:19.534Z,142.85
2023-03-03T05:29:52.617Z,139.25
2023-03-03T05:31:27.201Z,149.32
2023-03-03T05:32:59.542Z,136.48
2023-03-03T05:34:34.401Z,122.55
2023-03-03T05:36:08.126Z,136.93
2023-03-03T05:37:44.895Z,109.65
2023-03-03T05:39:18.420Z,123.72
2023-03-03T05:40:51.505Z,130.02
2023-03-03T05:42:24.642Z,129.43
2023-03-03T05:43:57.736Z,122.88
2023-03-03T05:45:30.835Z,124.10
2023-03-03T05:47:04.245Z,133.05
2023-03-03T05:48:37.537Z,122.10
2023-03-03T05:50:13.230Z,123.22
2023-03-03T05:51:46.505Z,117.68
2023-03-03T05:53:19.562Z,123.22
2023-03-03T05:54:52.681Z,117.50
2023-03-03T05:56:25.730Z,120.82
2023-03-03T05:57:58.938Z,130.27
2023-03-03T05:59:31.989Z,118.95
2023-03-03T06:01:05.423Z,118.32
2023-03-03T06:02:38.476Z,114.72
2023-03-03T06:04:11.789Z,119.88
2023-03-03T06:05:46.214Z,116.10
2023-03-03T06:07:19.411Z,118.75
2023-03-03T06:08:55.534Z,133.23
2023-03-03T06:10:30.155Z,117.35
2023-03-03T06:12:06.241Z,119.13
2023-03-03T06:13:39.307Z,136.63
2023-03-03T06:15:13.216Z,138.18
2023-03-03T06:16:46.376Z,130.40
2023-03-03T06:18:19.660Z,131.63
2023-03-03T06:19:52.750Z,134.75
2023-03-03T06:21:27.459Z,135.75
2023-03-03T06:23:00.507Z,128.65
2023-03-03T06:24:33.858Z,133.52
2023-03-03T06:26:07.365Z,117.15
2023-03-03T06:27:39.838Z,122.40
2023-03-03T06:29:14.642Z,118.57
2023-03-03T06:30:48.963Z,123.68
2023-03-03T06:32:22.051Z,124.10
2023-03-03T06:33:55.390Z,117.57
2023-03-03T06:35:28.595Z,116.63
2023-03-03T06:37:03.311Z,135.70
2023-03-03T06:38:36.461Z,150.27
2023-03-03T06:40:11.211Z,142.95
2023-03-03T06:41:44.417Z,164.43
2023-03-03T06:43:17.618Z,152.98
2023-03-03T06:44:50.727Z,156.68
2023-03-03T06:46:23.827Z,170.40
2023-03-03T06:47:56.902Z,163.93
2023-03-03T06:49:30.123Z,151.50
2023-03-03T06:51:05.142Z,163.57
2023-03-03T06:52:40.054Z,174.23
2023-03-03T06:54:14.960Z,187.52
2023-03-03T06:55:47.305Z,186.68
2023-03-03T06:57:26.496Z,177.00
2023-03-03T06:59:02.762Z,183.68
2023-03-03T07:00:36.828Z,179.52
2023-03-03T07:02:17.015Z,187.43
2023-03-03T07:03:50.185Z,175.45
2023-03-03T07:05:25.294Z,176.30
2023-03-03T07:06:59.157Z,192.18
2023-03-03T07:08:33.698Z,191.02
2023-03-03T07:10:14.204Z,191.15
2023-03-03T07:11:47.345Z,164.82
2023-03-03T07:13:22.952Z,171.15
2023-03-03T07:15:02.937Z,167.45
2023-03-03T07:16:36.139Z,164.82
2023-03-03T07:18:36.730Z,139.73
2023-03-03T07:20:19.458Z,169.00
2023-03-03T07:21:53.649Z,167.82
2023-03-03T07:23:28.961Z,153.30
2023-03-03T07:25:19.301Z,156.60
2023-03-03T07:26:52.805Z,123.25
2023-03-03T07:28:28.243Z,136.95
2023-03-03T07:30:19.249Z,135.10
2023-03-03T07:31:53.027Z,125.68
2023-03-03T07:33:28.261Z,129.02
2023-03-03T07:35:01.369Z,118.55
2023-03-03T07:36:37.822Z,121.47
2023-03-03T07:38:24.066Z,108.35
2023-03-03T07:39:58.169Z,106.20
2023-03-03T07:41:36.053Z,113.22
2023-03-03T07:43:41.495Z,107.57
2023-03-03T07:45:28.452Z,95.60
2023-03-03T07:47:16.657Z,115.72
2023-03-03T07:48:50.368Z,115.35
2023-03-03T07:50:24.541Z,121.65
2023-03-03T07:52:00.678Z,116.93
2023-03-03T07:53:38.235Z,128.63
2023-03-03T07:55:28.156Z,141.13
2023-03-03T07:57:12.936Z,136.07
2023-03-03T07:58:46.570Z,131.20
2023-03-03T08:01:11.974Z,120.05
2023-03-03T08:02:48.546Z,118.55
2023-03-03T08:04:25.222Z,109.78
2023-03-03T08:05:59.158Z,106.15
2023-03-03T08:07:32.830Z,104.75
2023-03-03T08:09:37.605Z,110.97
2023-03-03T08:11:10.740Z,106.55
2023-03-03T08:12:47.317Z,103.88
2023-03-03T08:14:27.413Z,119.00
2023-03-03T08:16:03.816Z,132.20
2023-03-03T08:17:39.518Z,103.63
2023-03-03T08:19:14.823Z,118.53
2023-03-03T08:20:49.775Z,120.50
2023-03-03T08:22:31.415Z,130.48
2023-03-03T08:24:04.792Z,109.30
2023-03-03T08:25:37.085Z,96.45
2023-03-03T08:27:10.202Z,86.38
2023-03-03T08:28:44.778Z,94.25
2023-03-03T08:30:18.261Z,105.65
2023-03-03T08:31:51.392Z,93.13
2023-03-03T08:33:24.520Z,88.28
2023-03-03T08:34:57.632Z,92.50
2023-03-03T08:36:32.537Z,102.65
2023-03-03T08:38:07.835Z,112.30
2023-03-03T08:39:41.380Z,100.50
2023-03-03T08:41:15.105Z,103.38
2023-03-03T08:42:48.984Z,110.88
2023-03-03T08:44:23.574Z,115.05
2023-03-03T08:46:00.626Z,109.18
2023-03-03T08:47:33.797Z,92.85
2023-03-03T08:49:06.915Z,107.35
2023-03-03T08:50:40.202Z,99.95
2023-03-03T08:52:13.343Z,120.93
2023-03-03T08:53:46.409Z,95.75
2023-03-03T08:55:19.740Z,115.00
2023-03-03T08:56:52.925Z,79.97
2023-03-03T08:58:35.275Z,86.53
2023-03-03T09:00:13.336Z,85.55
2023-03-03T09:01:46.480Z,87.18
2023-03-03T09:03:19.622Z,83.20
2023-03-03T09:04:52.760Z,82.07
2023-03-03T09:06:25.989Z,87.40
2023-03-03T09:07:59.373Z,81.88
2023-03-03T09:09:32.545Z,88.95
2023-03-03T09:11:11.810Z,78.70
2023-03-03T09:12:48.325Z,80.22
2023-03-03T09:14:21.426Z,91.45
2023-03-03T09:15:57.061Z,86.97
2023-03-03T09:17:33.684Z,79.88
2023-03-03T09:19:21.346Z,79.90
2023-03-03T09:20:57.371Z,75.22
2023-03-03T09:22:30.488Z,78.07
2023-03-03T09:24:03.608Z,73.13
2023-03-03T09:25:40.227Z,72.50
2023-03-03T09:27:19.904Z,74.05
2023-03-03T09:28:53.013Z,64.57
2023-03-03T09:30:37.155Z,66.32
2023-03-03T09:32:23.255Z,63.50
2023-03-03T09:33:57.983Z,60.35
2023-03-03T09:35:37.844Z,62.97
2023-03-03T09:37:21.919Z,57.72
2023-03-03T09:38:56.803Z,65.22
2023-03-03T09:40:49.162Z,56.33
2023-03-03T09:42:43.846Z,60.60
2023-03-03T09:44:41.960Z,62.58
2023-03-03T09:46:21.946Z,56.58
2023-03-03T09:48:15.338Z,56.33
2023-03-03T09:50:01.414Z,49.55
2023-03-03T09:51:59.560Z,51.28
2023-03-03T09:53:51.977Z,48.60
2023-03-03T09:55:44.786Z,44.45
2023-03-03T09:57:22.170Z,43.05
2023-03-03T09:59:06.232Z,41.75
2023-03-03T10:00:51.475Z,38.00
2023-03-03T10:02:39.306Z,37.47
2023-03-03T10:04:36.935Z,35.42
2023-03-03T10:06:17.977Z,36.67
2023-03-03T10:08:04.097Z,36.60
2023-03-03T10:10:13.265Z,37.00
2023-03-03T10:11:51.312Z,36.03
2023-03-03T10:13:37.570Z,37.47
2023-03-03T10:15:28.591Z,38.33
2023-03-03T10:17:20.803Z,40.75
2023-03-03T10:18:59.625Z,37.47
2023-03-03T10:20:51.151Z,34.35
2023-03-03T10:22:31.656Z,35.45
2023-03-03T10:24:16.751Z,38.30
2023-03-03T10:26:00.894Z,32.55
2023-03-03T10:27:55.667Z,38.03
2023-03-03T10:29:37.015Z,35.97
2023-03-03T10:31:20.769Z,31.90
2023-03-03T10:33:00.455Z,32.67
2023-03-03T10:34:54.976Z,30.23
2023-03-03T10:36:39.958Z,30.73
2023-03-03T10:38:30.017Z,30.65
2023-03-03T10:40:15.133Z,30.05
2023-03-03T10:42:00.664Z,28.08
2023-03-03T10:44:11.734Z,28.52
2023-03-03T10:46:01.359Z,24.90
2023-03-03T10:47:57.308Z,25.43
2023-03-03T10:49:42.326Z,26.60
2023-03-03T10:51:26.846Z,23.20
2023-03-03T10:53:17.102Z,24.90
2023-03-03T10:55:05.433Z,23.43
2023-03-03T10:56:53.282Z,25.80
2023-03-03T10:58:59.878Z,23.42
2023-03-03T11:00:38.049Z,19.33
2023-03-03T11:02:20.450Z,20.23
2023-03-03T11:04:42.287Z,21.27
2023-03-03T11:06:21.569Z,26.80
2023-03-03T11:07:59.406Z,30.10
2023-03-03T11:09:47.626Z,29.45
2023-03-03T11:11:31.019Z,25.75
2023-03-03T11:13:15.549Z,28.17
2023-03-03T11:14:53.678Z,22.00
2023-03-03T11:16:41.310Z,21.30
2023-03-03T11:18:25.707Z,18.10
2023-03-03T11:20:07.789Z,21.45
2023-03-03T11:21:47.922Z,22.45
2023-03-03T11:23:44.791Z,19.05
2023-03-03T11:25:31.325Z,18.35
2023-03-03T11:27:20.486Z,18.80
2023-03-03T11:29:06.886Z,17.43
2023-03-03T11:30:54.886Z,18.23
2023-03-03T11:32:36.371Z,14.90
2023-03-03T11:34:26.584Z,16.50
2023-03-03T11:36:13.036Z,15.27
2023-03-03T11:37:53.851Z,15.27
2023-03-03T11:39:27.682Z,17.30
2023-03-03T11:41:05.824Z,16.60
2023-03-03T11:42:48.088Z,15.33
2023-03-03T11:44:28.492Z,15.27
2023-03-03T11:46:06.150Z,14.70
2023-03-03T11:47:46.412Z,13.13
2023-03-03T11:49:25.018Z,14.63
2023-03-03T11:51:03.550Z,15.67
2023-03-03T11:52:46.247Z,15.87
2023-03-03T11:54:24.922Z,15.95
2023-03-03T11:56:01.242Z,18.83
2023-03-03T11:57:42.763Z,14.17
2023-03-03T11:59:30.632Z,15.27
2023-03-03T12:01:14.121Z,13.50
2023-03-03T12:03:17.620Z,13.13
2023-03-03T12:04:54.064Z,16.55
2023-03-03T12:06:34.725Z,14.10
2023-03-03T12:08:20.344Z,15.37
2023-03-03T12:10:14.536Z,15.88
2023-03-03T12:11:52.692Z,15.13
2023-03-03T12:13:36.726Z,15.15
2023-03-03T12:15:19.564Z,19.08
2023-03-03T12:16:56.832Z,18.47
2023-03-03T12:18:44.050Z,18.53
2023-03-03T12:20:23.720Z,19.10
2023-03-03T12:22:22.077Z,21.65
2023-03-03T12:24:09.729Z,17.02
2023-03-03T12:25:45.181Z,20.33
2023-03-03T12:27:26.495Z,15.63
2023-03-03T12:29:10.819Z,17.50
2023-03-03T12:30:59.552Z,18.30
2023-03-03T12:32:46.964Z,18.70
2023-03-03T12:34:25.462Z,15.13
2023-03-03T12:36:09.111Z,17.40
2023-03-03T12:37:52.295Z,16.70
2023-03-03T12:39:39.920Z,17.27
2023-03-03T12:41:20.085Z,16.33
2023-03-03T12:43:07.845Z,16.17
2023-03-03T12:44:49.270Z,14.83
2023-03-03T12:46:28.954Z,15.10
2023-03-03T12:48:06.621Z,14.00
2023-03-03T12:49:52.106Z,14.13
2023-03-03T12:51:42.842Z,16.03
2023-03-03T12:53:29.167Z,15.87
2023-03-03T12:55:09.947Z,16.50
2023-03-03T12:56:49.877Z,17.73
2023-03-03T12:58:35.045Z,14.67
2023-03-03T13:00:30.482Z,14.10
2023-03-03T13:02:30.899Z,13.50
2023-03-03T13:04:09.633Z,15.33
2023-03-03T13:05:52.585Z,14.80
2023-03-03T13:07:32.797Z,15.73
2023-03-03T13:09:28.423Z,13.67
2023-03-03T13:11:16.773Z,14.37
2023-03-03T13:12:57.509Z,12.13
2023-03-03T13:14:42.538Z,12.47
2023-03-03T13:16:31.919Z,10.70
2023-03-03T13:18:28.205Z,10.77
2023-03-03T13:20:02.756Z,13.00
2023-03-03T13:21:41.507Z,9.93
2023-03-03T13:23:25.618Z,10.57
2023-03-03T13:25:04.517Z,10.23
2023-03-03T13:26:41.341Z,13.43
2023-03-03T13:28:23.868Z,12.50
2023-03-03T13:30:02.445Z,11.30
2023-03-03T13:31:40.194Z,11.30
2023-03-03T13:33:19.309Z,11.63
2023-03-03T13:34:59.092Z,11.23
2023-03-03T13:36:39.922Z,14.83
2023-03-03T13:38:15.591Z,10.73
2023-03-03T13:39:58.508Z,10.83
2023-03-03T13:41:36.982Z,10.97
2023-03-03T13:43:18.369Z,10.00
2023-03-03T13:44:52.798Z,11.47
2023-03-03T13:46:39.723Z,12.37
2023-03-03T13:48:27.718Z,11.53
2023-03-03T13:50:18.251Z,10.80
2023-03-03T13:51:57.671Z,11.10
2023-03-03T13:53:42.235Z,11.87
2023-03-03T13:55:23.310Z,9.83
2023-03-03T13:57:13.596Z,9.80
2023-03-03T13:58:56.195Z,8.63
2023-03-03T14:00:38.845Z,10.97
2023-03-03T14:02:32.987Z,9.53
2023-03-03T14:04:17.890Z,11.77
2023-03-03T14:05:52.338Z,10.90
2023-03-03T14:07:32.982Z,10.83
2023-03-03T14:09:31.220Z,9.43
2023-03-03T14:11:12.661Z,10.10
2023-03-03T14:12:52.372Z,12.40
2023-03-03T14:14:41.149Z,12.37
2023-03-03T14:16:20.711Z,10.27
2023-03-03T14:18:10.441Z,9.47
2023-03-03T14:19:48.033Z,8.87
2023-03-03T14:21:28.184Z,10.63
2023-03-03T14:23:03.502Z,11.70
2023-03-03T14:25:04.524Z,11.87
2023-03-03T14:26:49.362Z,11.63
2023-03-03T14:28:24.967Z,9.90
2023-03-03T14:29:58.325Z,12.43
2023-03-03T14:31:40.868Z,12.10
2023-03-03T14:33:23.776Z,17.70
2023-03-03T14:35:02.600Z,13.87
2023-03-03T14:36:40.218Z,13.90
2023-03-03T14:38:15.593Z,13.60
2023-03-03T14:39:52.509Z,13.97
2023-03-03T14:41:38.009Z,14.60
2023-03-03T14:43:24.437Z,10.77
2023-03-03T14:44:59.185Z,11.17
2023-03-03T14:46:41.625Z,11.53
2023-03-03T14:48:18.294Z,11.83
2023-03-03T14:49:54.652Z,11.17
2023-03-03T14:51:30.223Z,11.10
2023-03-03T14:53:26.105Z,11.97
2023-03-03T14:55:00.805Z,10.93
2023-03-03T14:56:35.776Z,12.57
2023-03-03T14:58:29.336Z,11.13
2023-03-03T15:00:12.603Z,13.03
2023-03-03T15:01:46.332Z,12.33
2023-03-03T15:03:23.655Z,12.27
2023-03-03T15:05:17.342Z,12.97
2023-03-03T15:06:52.291Z,11.03
2023-03-03T15:08:33.117Z,12.00
2023-03-03T15:10:07.691Z,14.17
2023-03-03T15:11:40.949Z,13.90
2023-03-03T15:13:36.121Z,13.53
2023-03-03T15:15:19.329Z,12.57
2023-03-03T15:16:52.596Z,10.57
2023-03-03T15:18:26.332Z,11.47
2023-03-03T15:20:11.137Z,14.57
2023-03-03T15:21:55.089Z,11.50
2023-03-03T15:23:48.360Z,13.13
2023-03-03T15:25:42.566Z,12.30
2023-03-03T15:27:22.709Z,12.83
2023-03-03T15:29:05.790Z,12.37
2023-03-03T15:30:48.919Z,13.30
2023-03-03T15:32:30.733Z,15.43
2023-03-03T15:34:09.743Z,13.80
2023-03-03T15:35:51.424Z,13.27
2023-03-03T15:37:39.424Z,16.17
2023-03-03T15:39:23.716Z,14.33
2023-03-03T15:41:05.571Z,12.83
2023-03-03T15:42:47.217Z,13.23
2023-03-03T15:44:30.176Z,15.80
2023-03-03T15:46:13.139Z,16.10
2023-03-03T15:48:05.172Z,15.23
2023-03-03T15:50:12.710Z,16.43
2023-03-03T15:52:03.700Z,14.77
2023-03-03T15:53:56.168Z,13.67
2023-03-03T15:55:45.438Z,13.80
2023-03-03T15:57:29.452Z,15.43
2023-03-03T15:59:26.350Z,14.47
2023-03-03T16:01:10.697Z,15.27
2023-03-03T16:02:51.778Z,13.27
2023-03-03T16:04:30.566Z,14.43
2023-03-03T16:06:11.544Z,12.67
2023-03-03T16:07:59.207Z,16.40
2023-03-03T16:09:44.382Z,16.23
2023-03-03T16:11:24.617Z,17.63
2023-03-03T16:13:06.522Z,14.60
2023-03-03T16:15:12.483Z,18.17
2023-03-03T16:16:51.349Z,16.37
2023-03-03T16:18:45.636Z,14.77
2023-03-03T16:20:23.634Z,15.40
2023-03-03T16:22:16.060Z,19.10
2023-03-03T16:23:52.157Z,18.40
2023-03-03T16:25:55.143Z,17.73
2023-03-03T16:27:35.175Z,20.37
2023-03-03T16:29:23.683Z,19.70
2023-03-03T16:31:04.273Z,21.97
2023-03-03T16:32:43.728Z,19.17
2023-03-03T16:34:22.734Z,19.60
2023-03-03T16:36:03.524Z,21.90
2023-03-03T16:37:44.257Z,23.27
2023-03-03T16:39:27.141Z,26.38
2023-03-03T16:41:02.348Z,23.67
2023-03-03T16:42:35.757Z,26.65
2023-03-03T16:44:24.701Z,22.83
2023-03-03T16:46:02.067Z,26.42
2023-03-03T16:47:52.737Z,24.70
2023-03-03T16:49:32.706Z,31.33
2023-03-03T16:51:24.484Z,28.17
2023-03-03T16:53:05.796Z,29.92
2023-03-03T16:54:46.028Z,31.58
2023-03-03T16:56:23.390Z,31.33
2023-03-03T16:58:08.149Z,34.50
2023-03-03T16:59:48.729Z,33.07
2023-03-03T17:01:32.592Z,36.20
2023-03-03T17:03:33.550Z,38.63
2023-03-03T17:05:18.190Z,36.88
2023-03-03T17:06:56.301Z,36.33
2023-03-03T17:09:04.660Z,37.10
2023-03-03T17:10:43.862Z,37.47
2023-03-03T17:12:31.554Z,38.65
2023-03-03T17:14:25.013Z,40.60
2023-03-03T17:16:08.503Z,43.17
2023-03-03T17:17:47.155Z,49.58
2023-03-03T17:19:31.319Z,44.72
2023-03-03T17:21:11.238Z,51.07
2023-03-03T17:22:53.661Z,51.00
2023-03-03T17:24:35.780Z,46.88
2023-03-03T17:26:23.810Z,47.33
2023-03-03T17:28:23.166Z,60.03
2023-03-03T17:30:09.848Z,53.97
2023-03-03T17:31:49.791Z,52.43
2023-03-03T17:33:56.607Z,55.27
2023-03-03T17:35:57.484Z,57.70
2023-03-03T17:37:38.112Z,56.73
2023-03-03T17:39:34.487Z,56.83
2023-03-03T17:41:14.392Z,56.50
2023-03-03T17:42:55.463Z,61.43
2023-03-03T17:44:38.018Z,58.55
2023-03-03T17:46:17.135Z,62.77
2023-03-03T17:48:08.356Z,63.47
2023-03-03T17:50:03.332Z,58.33
2023-03-03T17:52:21.325Z,57.33
2023-03-03T17:54:26.094Z,57.42
2023-03-03T17:56:17.349Z,60.13
2023-03-03T17:58:07.925Z,62.22
2023-03-03T17:59:56.807Z,63.33
2023-03-03T18:01:46.840Z,63.20
2023-03-03T18:03:41.769Z,60.03
2023-03-03T18:05:37.060Z,61.15
2023-03-03T18:07:58.804Z,56.10
2023-03-03T18:09:50.646Z,54.13
2023-03-03T18:11:41.495Z,49.87
2023-03-03T18:13:35.142Z,51.67
2023-03-03T18:15:37.636Z,56.85
2023-03-03T18:17:30.062Z,50.60
2023-03-03T18:19:23.275Z,51.23
2023-03-03T18:21:08.660Z,46.33
2023-03-03T18:22:45.423Z,54.88
2023-03-03T18:24:36.717Z,56.00
2023-03-03T18:26:39.931Z,53.37
2023-03-03T18:28:22.079Z,53.47
2023-03-03T18:30:25.068Z,53.13
2023-03-03T18:32:18.689Z,56.75
2023-03-03T18:34:08.271Z,50.25
2023-03-03T18:35:44.014Z,57.70
2023-03-03T18:37:40.682Z,59.53
2023-03-03T18:39:15.972Z,58.43
2023-03-03T18:40:54.165Z,55.97
2023-03-03T18:42:40.074Z,56.23
2023-03-03T18:44:28.571Z,56.78
2023-03-03T18:46:01.733Z,55.37
2023-03-03T18:48:03.551Z,55.92
2023-03-03T18:49:57.452Z,53.40
2023-03-03T18:51:52.922Z,52.47
2023-03-03T18:53:28.403Z,51.10
2023-03-03T18:55:26.886Z,46.37
2023-03-03T18:57:14.725Z,46.63
2023-03-03T18:58:52.706Z,50.20
2023-03-03T19:00:29.024Z,48.80
2023-03-03T19:02:14.377Z,52.28
2023-03-03T19:04:04.417Z,55.87
2023-03-03T19:05:47.542Z,47.60
2023-03-03T19:07:27.589Z,48.38
2023-03-03T19:09:00.816Z,53.53
2023-03-03T19:10:50.209Z,50.75
2023-03-03T19:12:44.146Z,49.63
2023-03-03T19:14:32.610Z,49.27
2023-03-03T19:16:07.354Z,58.37
2023-03-03T19:17:50.721Z,55.38
2023-03-03T19:19:26.505Z,50.20
2023-03-03T19:21:02.299Z,50.78
2023-03-03T19:22:45.078Z,51.75
2023-03-03T19:24:34.903Z,48.22
2023-03-03T19:26:39.982Z,51.47
2023-03-03T19:28:36.595Z,46.50
2023-03-03T19:30:22.819Z,49.70
2023-03-03T19:32:06.727Z,49.03
2023-03-03T19:33:56.995Z,52.13
2023-03-03T19:35:39.583Z,45.40
2023-03-03T19:37:27.480Z,45.23
2023-03-03T19:39:39.392Z,50.28
2023-03-03T19:41:23.479Z,49.55
2023-03-03T19:43:07.661Z,50.75
2023-03-03T19:45:06.902Z,50.73
2023-03-03T19:46:55.677Z,51.72
2023-03-03T19:48:37.185Z,55.08
2023-03-03T19:50:31.229Z,47.80
2023-03-03T19:52:12.290Z,48.30
2023-03-03T19:53:55.622Z,58.03
2023-03-03T19:55:38.803Z,51.33
2023-03-03T19:57:19.679Z,49.28
2023-03-03T19:59:13.706Z,51.60
2023-03-03T20:00:49.031Z,52.33
2023-03-03T20:02:41.676Z,53.80
2023-03-03T20:04:39.313Z,49.47
2023-03-03T20:06:27.282Z,46.15
2023-03-03T20:08:05.328Z,42.17
2023-03-03T20:09:46.134Z,51.95
2023-03-03T20:11:35.929Z,48.28
2023-03-03T20:13:21.860Z,50.20
2023-03-03T20:15:02.962Z,56.13
2023-03-03T20:16:41.425Z,50.90
2023-03-03T20:18:45.703Z,51.90
2023-03-03T20:20:37.386Z,52.67
2023-03-03T20:22:13.691Z,48.40
2023-03-03T20:23:59.469Z,49.17
2023-03-03T20:25:40.889Z,51.13
2023-03-03T20:27:20.006Z,50.77
2023-03-03T20:29:11.274Z,50.15
2023-03-03T20:30:53.966Z,49.70
2023-03-03T20:32:36.360Z,52.87
2023-03-03T20:34:19.544Z,56.97
2023-03-03T20:36:04.502Z,51.47
2023-03-03T20:37:46.719Z,52.22
2023-03-03T20:39:31.060Z,50.65
2023-03-03T20:41:13.360Z,53.92
2023-03-03T20:42:54.263Z,53.33
2023-03-03T20:44:54.544Z,53.60
2023-03-03T20:46:38.556Z,52.30
2023-03-03T20:48:24.493Z,53.33
2023-03-03T20:50:15.718Z,52.63
2023-03-03T20:51:51.379Z,49.35
2023-03-03T20:53:27.409Z,47.67
2023-03-03T20:55:05.922Z,52.50
2023-03-03T20:56:44.036Z,54.42
2023-03-03T20:58:21.391Z,54.90
2023-03-03T20:59:57.737Z,52.27
2023-03-03T21:01:34.139Z,55.97
2023-03-03T21:03:12.442Z,50.03
2023-03-03T21:04:45.964Z,55.13
2023-03-03T21:06:21.625Z,54.63
2023-03-03T21:07:56.097Z,59.83
2023-03-03T21:09:30.973Z,55.37
2023-03-03T21:11:05.062Z,53.65
2023-03-03T21:12:38.480Z,57.87
2023-03-03T21:14:18.327Z,53.83
2023-03-03T21:15:56.332Z,48.58
2023-03-03T21:17:30.230Z,63.08
2023-03-03T21:19:04.144Z,56.97
2023-03-03T21:20:37.834Z,65.43
2023-03-03T21:22:13.587Z,59.97